Terminal Aerodrome Forecast
Issued by NWS

Home | Current Version | Previous Version | Text Only | Print | Product List | Glossary On
Versions: 1 2 3 4 5 6 7 8 9 10 11 12 13 14 15 16 17 18 19 20 21 22 23
971
FTUS44 KLZK 180123 AAA
TAFHOT
TAF AMD
KHOT 180123Z 1801/1824 VRB03KT 2SM BR OVC004
      TEMPO 1802/1806 3/4SM -DZ BR OVC002
     FM180600 00000KT 4SM BR OVC004
      TEMPO 1806/1810 3/4SM BR OVC004
     FM181000 00000KT 3/4SM BR OVC004
     FM181400 VRB03KT P6SM BKN007
     FM181900 20004KT P6SM SKC=

USA.gov is the U.S. government's official web portal to all federal, state and local government web resources and services.